Time;durP1;ratioP1;P1;durP2;ratioP2;P2;SDS_P1;SDS_P2;PMS_P1;PMS_P2;Temp;Humidity;BMP_temperature;BMP_pressure;BME280_temperature;BME280_humidity;BME280_pressure;Samples;Min_cycle;Max_cycle;Signal;HPM_P1;HPM_P2
2023/07/01 00:01:10;;;;;;;2.80;2.20;;;;;;;21.33;92.15;96863.66;1702027;75;691494;-72
2023/07/01 00:03:40;;;;;;;3.10;2.30;;;;;;;21.38;91.68;96867.50;1709976;75;670162;-73
2023/07/01 00:06:10;;;;;;;2.50;2.00;;;;;;;21.30;92.14;96864.78;1702231;75;668448;-70
2023/07/01 00:08:40;;;;;;;2.00;1.80;;;;;;;21.30;92.32;96856.44;1709963;75;668087;-72
2023/07/01 00:11:13;;;;;;;2.55;1.95;;;;;;;21.38;91.64;96853.59;1701417;75;680215;-72
2023/07/01 00:13:43;;;;;;;2.30;1.80;;;;;;;21.40;91.63;96857.31;1710382;75;672209;-74
2023/07/01 00:16:14;;;;;;;2.30;1.80;;;;;;;21.43;91.78;96850.63;1702559;75;677549;-71
2023/07/01 00:18:45;;;;;;;2.30;1.70;;;;;;;21.35;91.63;96847.13;1710140;75;667103;-72
2023/07/01 00:21:16;;;;;;;1.35;1.15;;;;;;;21.38;90.80;96842.44;1701550;75;685936;-72
2023/07/01 00:23:46;;;;;;;1.50;1.30;;;;;;;21.33;88.82;96852.50;1709855;75;666734;-71
2023/07/01 00:26:19;;;;;;;1.20;0.90;;;;;;;21.36;90.47;96851.38;1702075;75;673113;-70
2023/07/01 00:28:49;;;;;;;1.60;1.10;;;;;;;21.34;90.07;96850.47;1709507;75;668729;-73
2023/07/01 00:31:19;;;;;;;1.60;1.20;;;;;;;21.20;93.31;96853.53;1701750;75;670650;-72
2023/07/01 00:33:49;;;;;;;2.90;2.50;;;;;;;21.07;94.52;96859.41;1709710;75;671951;-69
2023/07/01 00:36:20;;;;;;;3.95;2.50;;;;;;;21.16;93.67;96852.47;1702358;75;677700;-72
2023/07/01 00:38:50;;;;;;;3.70;2.30;;;;;;;21.22;92.98;96853.72;1711025;75;670915;-71
2023/07/01 00:41:23;;;;;;;4.10;2.20;;;;;;;21.25;93.18;96865.75;1702382;75;681101;-71
2023/07/01 00:43:53;;;;;;;2.40;2.00;;;;;;;21.28;92.37;96870.19;1710844;75;672148;-71
2023/07/01 00:46:23;;;;;;;2.15;1.55;;;;;;;21.29;91.90;96871.69;1701529;75;753505;-72
2023/07/01 00:48:53;;;;;;;2.50;1.60;;;;;;;21.36;90.92;96872.91;1710905;75;674834;-71
2023/07/01 00:51:24;;;;;;;1.40;1.30;;;;;;;21.45;88.58;96872.31;1700795;75;744315;-70
2023/07/01 00:53:54;;;;;;;2.20;1.60;;;;;;;21.15;94.97;96878.81;1710008;75;674002;-70
2023/07/01 00:56:28;;;;;;;1.55;1.35;;;;;;;21.24;92.26;96887.28;1701329;75;749761;-70
2023/07/01 00:58:59;;;;;;;1.20;0.90;;;;;;;21.13;94.77;96887.72;1710620;75;671064;-74
2023/07/01 01:01:38;;;;;;;2.35;1.60;;;;;;;21.21;95.09;96888.44;1700886;75;740140;-74
2023/07/01 01:04:17;;;;;;;1.75;1.30;;;;;;;21.18;96.36;96888.81;1702663;75;674733;-72
2023/07/01 01:06:54;;;;;;;1.50;1.10;;;;;;;21.23;94.48;96893.41;1710192;75;673621;-70
2023/07/01 01:09:33;;;;;;;1.65;1.15;;;;;;;21.12;96.10;96894.63;1702111;75;673904;-74
2023/07/01 01:12:08;;;;;;;2.90;1.10;;;;;;;21.05;97.62;96890.56;1709899;75;686290;-69
2023/07/01 01:14:40;;;;;;;1.15;1.05;;;;;;;21.09;95.03;96881.09;1701830;75;726720;-71
2023/07/01 01:17:15;;;;;;;1.60;1.20;;;;;;;21.21;93.21;96890.47;1710210;75;678167;-71
2023/07/01 01:19:54;;;;;;;1.45;1.20;;;;;;;21.12;96.17;96893.84;1701223;75;746598;-72
2023/07/01 01:22:36;;;;;;;1.70;1.30;;;;;;;20.95;97.86;96886.94;1702930;75;667693;-71
2023/07/01 01:25:11;;;;;;;1.00;0.90;;;;;;;20.98;97.21;96887.84;1710289;75;674600;-69
2023/07/01 01:27:44;;;;;;;1.30;1.20;;;;;;;21.00;96.35;96879.66;1702836;75;672686;-72
2023/07/01 01:30:15;;;;;;;2.15;1.50;;;;;;;21.03;97.48;96878.53;1710434;75;672464;-69
2023/07/01 01:32:46;;;;;;;2.10;1.35;;;;;;;21.13;96.01;96882.16;1702009;75;707619;-72
2023/07/01 01:35:16;;;;;;;1.90;1.60;;;;;;;20.76;100.00;96892.97;1710274;75;671670;-72
2023/07/01 01:37:53;;;;;;;4.20;2.30;;;;;;;20.31;100.00;96894.59;1701836;75;743469;-73
2023/07/01 01:40:31;;;;;;;3.30;2.10;;;;;;;20.43;100.00;96892.88;1702448;75;669345;-67
2023/07/01 01:43:11;;;;;;;3.00;2.00;;;;;;;20.37;100.00;96897.16;1706426;75;977742;-70
2023/07/01 01:45:42;;;;;;;1.60;1.30;;;;;;;20.72;100.00;96891.88;1701952;75;672346;-76
2023/07/01 01:48:15;;;;;;;2.20;1.70;;;;;;;20.69;100.00;96884.66;1710120;75;687669;-74
2023/07/01 01:50:50;;;;;;;2.50;1.70;;;;;;;20.78;100.00;96884.81;1701908;75;675800;-74
2023/07/01 01:53:21;;;;;;;1.90;1.50;;;;;;;20.57;100.00;96881.56;1709726;75;688865;-70
2023/07/01 01:55:52;;;;;;;2.10;1.40;;;;;;;20.66;100.00;96883.75;1701206;75;727752;-72
2023/07/01 01:58:26;;;;;;;1.30;1.00;;;;;;;20.88;100.00;96875.81;1710319;75;664656;-75
2023/07/01 02:00:56;;;;;;;1.50;1.10;;;;;;;20.79;100.00;96883.50;1701367;75;751177;-70
2023/07/01 02:03:27;;;;;;;2.45;1.70;;;;;;;20.43;100.00;96878.25;1710660;75;671519;-70
2023/07/01 02:05:57;;;;;;;1.60;1.30;;;;;;;20.33;100.00;96882.94;1700459;75;774751;-70
2023/07/01 02:08:27;;;;;;;2.30;1.70;;;;;;;20.58;100.00;96878.22;1710239;75;674582;-72
2023/07/01 02:10:58;;;;;;;2.95;1.95;;;;;;;20.53;100.00;96879.13;1700939;75;740926;-74
2023/07/01 02:13:31;;;;;;;1.95;1.60;;;;;;;20.34;100.00;96887.19;1709771;75;695067;-71
2023/07/01 02:16:01;;;;;;;3.20;2.30;;;;;;;20.16;100.00;96883.53;1701244;75;744129;-71
2023/07/01 02:18:31;;;;;;;3.75;2.60;;;;;;;20.10;100.00;96889.28;1710228;75;675557;-72
2023/07/01 02:21:04;;;;;;;2.30;1.80;;;;;;;20.15;100.00;96891.13;1701570;75;738382;-71
2023/07/01 02:23:34;;;;;;;2.50;1.70;;;;;;;20.27;100.00;96888.69;1711104;75;675016;-71
2023/07/01 02:26:04;;;;;;;1.85;1.50;;;;;;;20.52;100.00;96894.34;1701396;75;749930;-74
2023/07/01 02:28:37;;;;;;;1.40;1.20;;;;;;;20.53;100.00;96886.75;1709756;75;678715;-72
2023/07/01 02:31:07;;;;;;;1.90;1.40;;;;;;;20.38;100.00;96893.84;1701810;75;731768;-72
2023/07/01 02:33:37;;;;;;;2.05;1.25;;;;;;;20.21;100.00;96896.50;1710674;75;669424;-70
2023/07/01 02:36:08;;;;;;;1.40;1.30;;;;;;;20.27;100.00;96901.84;1701045;75;753011;-72
2023/07/01 02:38:39;;;;;;;2.05;1.50;;;;;;;20.49;100.00;96903.06;1709390;75;704472;-69
2023/07/01 02:41:09;;;;;;;1.70;1.45;;;;;;;20.53;100.00;96901.38;1701100;75;751539;-72
2023/07/01 02:43:42;;;;;;;2.00;1.35;;;;;;;20.67;100.00;96904.69;1709911;75;680590;-71
2023/07/01 02:46:12;;;;;;;1.85;1.20;;;;;;;20.72;100.00;96905.78;1701005;75;731209;-69
2023/07/01 02:48:43;;;;;;;0.80;0.80;;;;;;;20.83;100.00;96905.38;1709851;75;670831;-70
2023/07/01 02:51:13;;;;;;;1.40;1.20;;;;;;;20.46;100.00;96907.72;1701401;75;750996;-75
2023/07/01 02:53:43;;;;;;;1.65;1.35;;;;;;;20.66;100.00;96913.59;1709650;75;671572;-73
2023/07/01 02:56:13;;;;;;;1.50;1.30;;;;;;;20.53;100.00;96908.97;1700485;75;756012;-71
2023/07/01 02:58:46;;;;;;;1.35;1.25;;;;;;;20.56;100.00;96919.00;1709871;75;669216;-70
2023/07/01 03:01:16;;;;;;;1.90;1.45;;;;;;;20.47;100.00;96916.78;1700953;75;730993;-70
2023/07/01 03:03:49;;;;;;;2.40;1.85;;;;;;;20.51;100.00;96912.31;1709926;75;680509;-73
2023/07/01 03:06:20;;;;;;;4.15;2.95;;;;;;;20.13;100.00;96918.75;1701143;75;746900;-70
2023/07/01 03:08:50;;;;;;;5.15;3.60;;;;;;;20.10;100.00;96921.91;1710236;75;671486;-71
2023/07/01 03:11:20;;;;;;;4.55;2.80;;;;;;;20.09;100.00;96934.31;1701419;75;748633;-72
2023/07/01 03:13:53;;;;;;;3.50;2.75;;;;;;;20.03;100.00;96928.94;1709735;75;670671;-71
2023/07/01 03:16:23;;;;;;;3.85;2.55;;;;;;;20.01;100.00;96925.97;1700781;75;739658;-69
2023/07/01 03:18:53;;;;;;;4.50;3.20;;;;;;;19.93;100.00;96930.81;1710089;75;669963;-71
2023/07/01 03:21:23;;;;;;;4.10;3.15;;;;;;;19.87;100.00;96931.00;1701129;75;753650;-70
2023/07/01 03:23:53;;;;;;;3.60;2.60;;;;;;;19.83;100.00;96930.63;1710631;75;674625;-72
2023/07/01 03:26:24;;;;;;;3.25;2.70;;;;;;;19.96;100.00;96926.91;1700251;75;741768;-72
2023/07/01 03:28:56;;;;;;;3.30;2.60;;;;;;;19.88;100.00;96931.75;1710661;75;680310;-73
2023/07/01 03:31:27;;;;;;;3.35;2.65;;;;;;;19.97;100.00;96928.41;1701028;75;756262;-69
2023/07/01 03:33:57;;;;;;;5.20;3.20;;;;;;;19.79;100.00;96931.03;1710353;75;680401;-71
2023/07/01 03:36:28;;;;;;;3.95;3.15;;;;;;;19.82;100.00;96926.38;1701447;75;747329;-71
2023/07/01 03:39:00;;;;;;;4.85;3.50;;;;;;;19.64;100.00;96933.03;1709758;75;691212;-71
2023/07/01 03:41:30;;;;;;;4.00;3.20;;;;;;;19.65;100.00;96937.28;1701161;75;753084;-72
2023/07/01 03:44:03;;;;;;;3.45;3.00;;;;;;;19.74;100.00;96936.75;1709843;75;671529;-72
2023/07/01 03:46:34;;;;;;;3.10;2.50;;;;;;;19.99;100.00;96934.88;1700871;75;743432;-72
2023/07/01 03:49:04;;;;;;;3.95;3.00;;;;;;;19.86;100.00;96939.91;1707069;75;920650;-70
2023/07/01 03:51:35;;;;;;;3.20;2.50;;;;;;;19.82;100.00;96931.94;1701349;75;753100;-73
2023/07/01 03:54:06;;;;;;;4.20;3.25;;;;;;;19.71;100.00;96932.31;1709840;75;678647;-69
2023/07/01 03:56:36;;;;;;;4.95;2.95;;;;;;;19.80;100.00;96928.97;1700918;75;755510;-71
2023/07/01 03:59:08;;;;;;;3.25;2.95;;;;;;;19.67;100.00;96929.88;1709100;75;689621;-74
2023/07/01 04:01:39;;;;;;;4.90;3.45;;;;;;;19.64;100.00;96933.03;1701180;75;752149;-71
2023/07/01 04:04:09;;;;;;;4.00;3.50;;;;;;;19.69;100.00;96923.78;1710248;75;686118;-70
2023/07/01 04:06:39;;;;;;;4.15;2.95;;;;;;;19.90;100.00;96923.59;1701460;75;736763;-73
2023/07/01 04:09:12;;;;;;;3.35;2.80;;;;;;;19.83;100.00;96918.78;1709561;75;683315;-72
2023/07/01 04:11:43;;;;;;;3.35;2.65;;;;;;;19.73;100.00;96919.34;1701155;75;754831;-74
2023/07/01 04:14:16;;;;;;;4.10;3.10;;;;;;;19.81;100.00;96929.72;1709880;75;684537;-73
2023/07/01 04:16:47;;;;;;;3.75;2.80;;;;;;;19.92;100.00;96930.06;1701523;75;724995;-70
2023/07/01 04:19:17;;;;;;;4.20;2.60;;;;;;;19.93;100.00;96928.03;1710345;75;681317;-71
2023/07/01 04:21:47;;;;;;;3.85;3.10;;;;;;;19.82;100.00;96928.41;1701935;75;750765;-70
2023/07/01 04:24:18;;;;;;;3.95;3.30;;;;;;;19.74;100.00;96922.88;1710506;75;676464;-71
2023/07/01 04:26:48;;;;;;;4.85;3.45;;;;;;;19.71;100.00;96926.75;1701516;75;743991;-76
2023/07/01 04:29:21;;;;;;;4.40;3.30;;;;;;;19.71;100.00;96923.97;1709962;75;684015;-73
2023/07/01 04:31:51;;;;;;;4.40;3.90;;;;;;;19.55;100.00;96939.84;1701375;75;757795;-71
2023/07/01 04:34:21;;;;;;;4.85;3.75;;;;;;;19.35;100.00;96930.41;1710159;75;670605;-68
2023/07/01 04:36:51;;;;;;;4.35;3.75;;;;;;;19.25;100.00;96924.66;1701348;75;742593;-72
2023/07/01 04:39:26;;;;;;;4.45;3.30;;;;;;;19.45;100.00;96927.84;1710429;75;676511;-71
2023/07/01 04:41:56;;;;;;;3.90;3.35;;;;;;;19.29;100.00;96925.06;1701093;75;748055;-72
2023/07/01 04:44:29;;;;;;;4.55;3.35;;;;;;;19.46;100.00;96932.84;1709591;75;711055;-69
2023/07/01 04:46:59;;;;;;;4.15;3.35;;;;;;;19.30;100.00;96931.34;1701545;75;747395;-73
2023/07/01 04:49:30;;;;;;;5.70;4.15;;;;;;;19.26;100.00;96928.19;1709622;75;681795;-72
2023/07/01 04:52:00;;;;;;;4.90;3.65;;;;;;;19.41;100.00;96936.53;1701017;75;746344;-70
2023/07/01 04:54:30;;;;;;;4.30;3.30;;;;;;;19.65;100.00;96928.94;1710328;75;681627;-72
2023/07/01 04:57:00;;;;;;;4.60;3.50;;;;;;;19.94;100.00;96933.03;1701604;75;752055;-73
2023/07/01 04:59:33;;;;;;;5.35;2.75;;;;;;;20.20;100.00;96925.56;1710302;75;672144;-69
2023/07/01 05:02:03;;;;;;;4.35;3.30;;;;;;;19.94;100.00;96932.28;1701373;75;756595;-73
2023/07/01 05:04:33;;;;;;;5.10;3.45;;;;;;;19.75;100.00;96935.47;1709942;75;682629;-73
2023/07/01 05:07:04;;;;;;;3.45;2.90;;;;;;;20.29;100.00;96927.03;1701633;75;743066;-70
2023/07/01 05:09:34;;;;;;;3.85;2.60;;;;;;;20.07;100.00;96932.09;1710390;75;675516;-69
2023/07/01 05:12:04;;;;;;;5.70;3.50;;;;;;;19.71;100.00;96924.72;1701349;75;763215;-72
2023/07/01 05:14:37;;;;;;;4.60;3.65;;;;;;;19.89;100.00;96928.41;1709619;75;691706;-72
2023/07/01 05:17:08;;;;;;;3.95;3.40;;;;;;;20.00;100.00;96928.03;1700814;75;761416;-71
2023/07/01 05:19:39;;;;;;;3.50;2.80;;;;;;;20.64;100.00;96934.38;1709713;75;686098;-70
2023/07/01 05:22:09;;;;;;;2.90;2.45;;;;;;;20.69;100.00;96927.13;1700936;75;736385;-72
2023/07/01 05:24:39;;;;;;;2.35;2.15;;;;;;;20.90;100.00;96928.88;1708474;75;863064;-74
2023/07/01 05:27:09;;;;;;;3.10;2.40;;;;;;;20.84;100.00;96937.44;1700809;75;744875;-72
2023/07/01 05:29:42;;;;;;;3.45;2.75;;;;;;;20.81;100.00;96935.78;1709888;75;677699;-71
2023/07/01 05:32:12;;;;;;;3.45;2.80;;;;;;;20.84;100.00;96937.44;1701682;75;754568;-70
2023/07/01 05:34:43;;;;;;;4.05;3.15;;;;;;;20.98;100.00;96940.72;1710032;75;675581;-71
2023/07/01 05:37:13;;;;;;;4.30;3.35;;;;;;;20.94;100.00;96934.78;1701259;75;759880;-71
2023/07/01 05:39:43;;;;;;;2.90;2.60;;;;;;;21.04;100.00;96939.16;1710175;75;675407;-72
2023/07/01 05:42:13;;;;;;;2.75;2.40;;;;;;;21.41;100.00;96927.69;1701141;75;749437;-70
2023/07/01 05:44:46;;;;;;;2.55;2.35;;;;;;;21.53;100.00;96934.28;1709748;75;668276;-72
2023/07/01 05:47:16;;;;;;;2.40;2.20;;;;;;;21.35;100.00;96935.47;1700909;75;724659;-73
2023/07/01 05:49:46;;;;;;;2.50;2.30;;;;;;;21.42;100.00;96929.88;1709634;75;670604;-72
2023/07/01 05:52:17;;;;;;;3.50;3.20;;;;;;;21.33;100.00;96940.88;1701221;75;744145;-74
2023/07/01 05:54:47;;;;;;;4.15;3.25;;;;;;;21.42;100.00;96941.00;1710043;75;675885;-73
2023/07/01 05:57:18;;;;;;;4.40;3.55;;;;;;;21.41;100.00;96933.97;1700854;75;751832;-70
2023/07/01 05:59:51;;;;;;;5.40;3.70;;;;;;;21.16;100.00;96939.47;1709935;75;692096;-71
2023/07/01 06:02:21;;;;;;;3.65;3.15;;;;;;;21.45;100.00;96941.91;1701351;75;741462;-72
2023/07/01 06:04:51;;;;;;;3.75;3.20;;;;;;;21.43;100.00;96945.28;1710387;75;681056;-74
2023/07/01 06:07:21;;;;;;;3.45;3.15;;;;;;;21.01;100.00;96947.91;1702087;75;726408;-73
2023/07/01 06:09:52;;;;;;;3.60;2.90;;;;;;;21.51;100.00;96942.44;1710281;75;670431;-72
2023/07/01 06:12:22;;;;;;;4.70;3.65;;;;;;;21.59;100.00;96940.34;1700745;75;750549;-74
2023/07/01 06:14:55;;;;;;;3.20;2.90;;;;;;;21.66;100.00;96945.09;1710191;75;675618;-71
2023/07/01 06:17:25;;;;;;;3.80;3.30;;;;;;;21.21;100.00;96944.09;1701289;75;742671;-73
2023/07/01 06:19:55;;;;;;;6.40;5.70;;;;;;;21.81;100.00;96943.50;1709915;75;696646;-72
2023/07/01 06:22:25;;;;;;;4.45;4.00;;;;;;;21.90;100.00;96948.44;1701056;75;744213;-74
2023/07/01 06:24:55;;;;;;;3.85;3.40;;;;;;;22.02;100.00;96949.44;1710281;75;674675;-70
2023/07/01 06:27:27;;;;;;;3.70;3.20;;;;;;;21.80;100.00;96950.41;1700203;75;757847;-73
2023/07/01 06:30:00;;;;;;;4.65;3.15;;;;;;;22.16;100.00;96958.25;1710404;75;675005;-71
2023/07/01 06:32:31;;;;;;;3.50;2.60;;;;;;;21.96;98.27;96948.19;1701363;75;750402;-73
2023/07/01 06:35:01;;;;;;;2.85;2.20;;;;;;;21.86;97.48;96950.88;1709801;75;711279;-71
2023/07/01 06:37:31;;;;;;;3.25;2.60;;;;;;;22.05;95.61;96955.94;1701327;75;741186;-73
2023/07/01 06:40:02;;;;;;;3.15;2.55;;;;;;;22.13;99.25;96959.41;1709754;75;674698;-72
2023/07/01 06:42:32;;;;;;;2.95;2.35;;;;;;;22.33;97.82;96946.38;1700761;75;748784;-73
2023/07/01 06:45:05;;;;;;;3.80;3.00;;;;;;;22.35;95.10;96948.63;1710457;75;672277;-75
2023/07/01 06:47:36;;;;;;;3.55;2.60;;;;;;;22.26;95.37;96947.94;1701020;75;751012;-75
2023/07/01 06:50:06;;;;;;;3.30;2.50;;;;;;;22.34;94.42;96947.84;1710505;75;675248;-73
2023/07/01 06:52:36;;;;;;;3.25;2.65;;;;;;;22.45;94.66;96943.84;1700780;75;742921;-73
2023/07/01 06:55:08;;;;;;;3.60;2.70;;;;;;;22.70;93.05;96949.31;1709701;75;673801;-72
2023/07/01 06:57:39;;;;;;;3.45;2.85;;;;;;;22.83;93.85;96953.84;1701403;75;751793;-71
2023/07/01 07:00:15;;;;;;;2.60;2.25;;;;;;;22.70;92.70;96947.25;1710406;75;677644;-75
2023/07/01 07:02:45;;;;;;;3.40;2.85;;;;;;;22.80;91.79;96958.50;1700781;75;756896;-73
2023/07/01 07:05:15;;;;;;;3.15;2.85;;;;;;;22.89;89.58;96952.25;1709867;75;678179;-73
2023/07/01 07:07:45;;;;;;;4.25;3.00;;;;;;;22.75;89.08;96956.69;1700869;75;741433;-76
2023/07/01 07:10:16;;;;;;;4.90;3.45;;;;;;;23.01;89.10;96958.06;1709436;75;672804;-73
2023/07/01 07:12:46;;;;;;;5.55;3.60;;;;;;;23.00;88.24;96948.25;1701562;75;750124;-73
2023/07/01 07:15:19;;;;;;;4.70;3.15;;;;;;;22.68;86.88;96952.69;1709451;75;675068;-73
2023/07/01 07:17:49;;;;;;;3.15;2.80;;;;;;;22.86;86.80;96953.41;1701164;75;745959;-70
2023/07/01 07:20:21;;;;;;;3.60;3.15;;;;;;;22.82;86.22;96944.69;1710079;75;695807;-70
2023/07/01 07:22:51;;;;;;;3.40;2.80;;;;;;;23.09;85.56;96949.59;1698158;75;900741;-74
2023/07/01 07:25:22;;;;;;;5.40;3.20;;;;;;;23.03;87.40;96946.34;1710215;75;670862;-74
2023/07/01 07:27:52;;;;;;;3.30;2.70;;;;;;;23.15;87.85;96942.44;1698639;75;893939;-73
2023/07/01 07:30:25;;;;;;;4.15;3.15;;;;;;;22.79;83.45;96945.13;1710002;75;671961;-73
2023/07/01 07:32:56;;;;;;;3.90;3.10;;;;;;;23.09;82.21;96941.22;1700712;75;746686;-72
2023/07/01 07:35:26;;;;;;;4.30;3.50;;;;;;;23.16;83.21;96940.38;1709004;75;678124;-73
2023/07/01 07:37:56;;;;;;;4.20;3.60;;;;;;;23.09;83.33;96930.06;1700554;75;756692;-77
2023/07/01 07:40:26;;;;;;;4.80;3.90;;;;;;;23.34;82.34;96939.00;1709777;75;683550;-72
2023/07/01 07:42:57;;;;;;;7.25;6.25;;;;;;;23.61;79.42;96938.97;1701469;75;750515;-75
2023/07/01 07:45:30;;;;;;;6.30;4.80;;;;;;;23.63;81.22;96954.41;1710164;75;677343;-74
2023/07/01 07:48:00;;;;;;;7.65;6.45;;;;;;;23.32;78.59;96946.50;1700837;75;744340;-72
2023/07/01 07:50:30;;;;;;;5.05;4.15;;;;;;;23.60;79.45;96945.88;1710550;75;677747;-73
2023/07/01 07:53:01;;;;;;;5.55;4.25;;;;;;;23.47;78.56;96940.66;1702308;75;748370;-72
2023/07/01 07:55:33;;;;;;;5.15;4.10;;;;;;;23.65;78.55;96938.53;1711951;75;674653;-76
2023/07/01 07:58:04;;;;;;;3.75;3.10;;;;;;;23.93;76.00;96942.00;1702845;75;749344;-70
2023/07/01 08:00:36;;;;;;;5.00;3.70;;;;;;;23.82;75.87;96940.53;1712994;75;680838;-71
2023/07/01 08:03:07;;;;;;;5.10;4.00;;;;;;;23.90;75.53;96937.59;1704713;75;762234;-72
2023/07/01 08:05:37;;;;;;;3.70;3.15;;;;;;;24.14;74.26;96933.81;1713614;75;677285;-75
2023/07/01 08:08:08;;;;;;;3.85;3.45;;;;;;;23.89;75.15;96934.06;1703110;75;746417;-74
2023/07/01 08:10:43;;;;;;;4.35;3.25;;;;;;;24.19;75.17;96932.78;1711606;75;682766;-70
2023/07/01 08:13:14;;;;;;;3.60;2.70;;;;;;;24.02;73.83;96939.25;1701974;75;761853;-74
2023/07/01 08:15:47;;;;;;;3.50;2.80;;;;;;;24.21;72.47;96938.53;1710430;75;676181;-75
2023/07/01 08:18:17;;;;;;;5.10;4.15;;;;;;;23.87;73.44;96936.72;1700889;75;752878;-73
2023/07/01 08:20:50;;;;;;;4.05;3.10;;;;;;;24.23;72.55;96938.69;1710389;75;672222;-75
2023/07/01 08:23:20;;;;;;;6.90;3.75;;;;;;;23.99;73.91;96936.88;1701792;75;743491;-72
2023/07/01 08:25:51;;;;;;;4.75;3.85;;;;;;;24.13;73.68;96934.41;1709827;75;669748;-73
2023/07/01 08:28:21;;;;;;;3.75;3.35;;;;;;;24.59;72.40;96931.50;1700681;75;759881;-74
2023/07/01 08:30:54;;;;;;;4.55;3.90;;;;;;;24.47;73.20;96927.84;1710585;75;668964;-70
2023/07/01 08:33:24;;;;;;;8.65;3.80;;;;;;;24.45;74.09;96936.78;1701035;75;738785;-75
2023/07/01 08:35:54;;;;;;;4.15;3.55;;;;;;;24.72;74.61;96927.50;1709107;75;675918;-72
2023/07/01 08:38:24;;;;;;;4.50;3.80;;;;;;;23.90;77.79;96932.75;1699174;75;896021;-72
2023/07/01 08:40:55;;;;;;;3.90;3.40;;;;;;;24.39;75.06;96932.78;1711016;75;670868;-71
2023/07/01 08:43:31;;;;;;;5.20;3.90;;;;;;;24.54;73.52;96935.34;1701615;75;749904;-76
2023/07/01 08:46:09;;;;;;;3.40;2.80;;;;;;;24.72;71.78;96935.91;1704098;75;688817;-70
2023/07/01 08:48:40;;;;;;;4.10;3.40;;;;;;;24.59;71.20;96947.56;1710548;75;679766;-72
2023/07/01 08:51:15;;;;;;;4.70;3.40;;;;;;;24.68;73.49;96930.03;1701873;75;679106;-73
2023/07/01 08:53:47;;;;;;;4.70;3.10;;;;;;;24.52;77.12;96928.88;1709963;75;678413;-73
2023/07/01 08:56:17;;;;;;;4.25;3.00;;;;;;;24.63;77.21;96933.88;1702121;75;675140;-74
2023/07/01 08:58:49;;;;;;;4.30;3.20;;;;;;;23.80;78.23;96927.13;1710705;75;676456;-74
2023/07/01 09:01:23;;;;;;;4.00;3.00;;;;;;;23.99;79.99;96918.06;1702355;75;684637;-74
2023/07/01 09:03:53;;;;;;;3.15;2.65;;;;;;;24.48;79.53;96929.28;1710014;75;676902;-72
2023/07/01 09:06:24;;;;;;;4.20;3.40;;;;;;;23.61;82.52;96925.00;1701936;75;676897;-74
2023/07/01 09:08:54;;;;;;;3.70;3.10;;;;;;;24.41;83.29;96916.91;1710146;75;704102;-72
2023/07/01 09:11:24;;;;;;;4.50;3.40;;;;;;;24.41;77.62;96913.38;1702225;75;674911;-71
2023/07/01 09:13:58;;;;;;;5.25;3.35;;;;;;;24.54;79.68;96915.03;1710119;75;668591;-74
2023/07/01 09:16:41;;;;;;;3.85;3.05;;;;;;;24.66;77.30;96913.09;1701065;75;757603;-75
2023/07/01 09:19:16;;;;;;;4.80;3.50;;;;;;;24.30;78.35;96916.75;1699593;75;920423;-73
2023/07/01 09:21:47;;;;;;;4.75;4.05;;;;;;;25.06;73.85;96903.28;1710009;75;673531;-73
2023/07/01 09:24:17;;;;;;;4.70;3.90;;;;;;;25.20;71.89;96911.97;1701968;75;682382;-73
2023/07/01 09:26:55;;;;;;;5.30;4.00;;;;;;;25.39;72.03;96911.16;1710845;75;675839;-73
2023/07/01 09:29:35;;;;;;;5.80;3.90;;;;;;;25.25;68.56;96908.09;1699090;75;970413;-73
2023/07/01 09:32:10;;;;;;;5.20;4.30;;;;;;;24.92;69.31;96899.47;1701990;75;677315;-73
2023/07/01 09:34:57;;;;;;;4.70;3.80;;;;;;;25.40;68.22;96904.22;1710632;75;678251;-74
2023/07/01 09:37:28;;;;;;;3.05;2.75;;;;;;;25.52;68.07;96910.66;1702868;75;677447;-75
2023/07/01 09:39:58;;;;;;;3.10;2.80;;;;;;;25.55;67.64;96914.34;1710027;75;677957;-73
2023/07/01 09:42:28;;;;;;;4.70;3.40;;;;;;;25.29;67.44;96914.72;1702409;75;675176;-74
2023/07/01 09:45:12;;;;;;;5.40;4.55;;;;;;;24.49;68.12;96916.78;1710446;75;674720;-72
2023/07/01 09:47:45;;;;;;;5.25;3.80;;;;;;;24.67;68.89;96915.28;1701546;75;768390;-74
2023/07/01 09:50:26;;;;;;;4.80;3.80;;;;;;;24.96;69.06;96922.16;1709835;75;675968;-74
2023/07/01 09:52:56;;;;;;;4.20;3.50;;;;;;;25.07;68.41;96915.97;1701166;75;755405;-73
2023/07/01 09:55:27;;;;;;;3.70;3.30;;;;;;;24.87;68.32;96915.28;1709915;75;692247;-74
2023/07/01 09:57:59;;;;;;;6.00;4.10;;;;;;;24.63;68.92;96915.00;1701207;75;771903;-72
2023/07/01 10:00:29;;;;;;;4.30;3.30;;;;;;;25.00;68.27;96914.06;1709765;75;685532;-76
2023/07/01 10:03:02;;;;;;;5.90;3.30;;;;;;;25.13;68.62;96910.78;1700935;75;756285;-75
2023/07/01 10:05:33;;;;;;;4.60;3.30;;;;;;;24.69;74.20;96908.38;1710591;75;680575;-74
2023/07/01 10:08:03;;;;;;;4.45;3.25;;;;;;;24.75;74.61;96912.34;1701520;75;753974;-75
2023/07/01 10:10:33;;;;;;;4.20;3.20;;;;;;;24.50;75.88;96915.47;1710254;75;672721;-73
2023/07/01 10:13:05;;;;;;;4.10;3.35;;;;;;;24.38;78.26;96911.75;1701089;75;744203;-73
2023/07/01 10:15:38;;;;;;;4.45;3.80;;;;;;;24.04;79.01;96905.09;1710094;75;678393;-71
2023/07/01 10:18:26;;;;;;;3.75;2.90;;;;;;;24.05;80.32;96909.38;1701014;75;757080;-70
2023/07/01 10:21:16;;;;;;;5.40;3.40;;;;;;;24.39;78.47;96907.63;1702531;75;674453;-73
2023/07/01 10:23:50;;;;;;;4.75;3.35;;;;;;;24.11;81.46;96909.81;1701516;75;674500;-73
2023/07/01 10:26:47;;;;;;;3.50;3.10;;;;;;;24.26;79.24;96906.00;1709966;75;672209;-73
2023/07/01 10:29:58;;;;;;;4.85;3.75;;;;;;;23.74;83.13;96911.97;1700625;75;754990;-73
2023/07/01 10:32:36;;;;;;;3.85;3.25;;;;;;;24.27;78.76;96907.50;1700953;75;749993;-73
2023/07/01 10:35:17;;;;;;;;;;;;;;;24.11;79.95;96914.69;1702269;75;678923;-71
2023/07/01 10:38:04;;;;;;;4.80;3.10;;;;;;;24.21;79.42;96910.56;1710088;75;674570;-73
2023/07/01 10:40:49;;;;;;;4.60;3.50;;;;;;;23.54;83.57;96919.53;1701674;75;742114;-73
2023/07/01 10:43:29;;;;;;;4.70;4.00;;;;;;;23.76;83.74;96915.66;1702395;75;684031;-74
2023/07/01 10:46:23;;;;;;;4.40;3.75;;;;;;;23.62;84.13;96914.56;1709291;75;672158;-72
2023/07/01 10:49:11;;;;;;;3.65;3.05;;;;;;;23.71;83.09;96907.50;1700856;75;764165;-73
2023/07/01 10:52:10;;;;;;;4.00;3.30;;;;;;;23.90;82.07;96918.75;1701595;75;670928;-73
2023/07/01 10:54:41;;;;;;;4.50;3.60;;;;;;;23.77;82.31;96911.53;1702031;75;675821;-72
2023/07/01 10:57:18;;;;;;;3.40;2.90;;;;;;;23.87;81.60;96910.81;1709387;75;673294;-74
2023/07/01 10:59:48;;;;;;;3.85;3.45;;;;;;;23.73;82.21;96907.66;1702159;75;685318;-73
2023/07/01 11:02:43;;;;;;;5.20;4.00;;;;;;;23.87;80.97;96910.81;1709958;75;680055;-72
2023/07/01 11:05:15;;;;;;;4.45;3.85;;;;;;;23.83;77.51;96913.31;1700763;75;740220;-76
2023/07/01 11:07:48;;;;;;;8.00;5.40;;;;;;;23.35;77.39;96909.75;1709619;75;671496;-73
2023/07/01 11:10:18;;;;;;;7.90;6.25;;;;;;;23.07;79.28;96916.69;1700726;75;745005;-72
2023/07/01 11:12:48;;;;;;;6.80;5.50;;;;;;;23.02;80.93;96925.31;1709900;75;679353;-70
2023/07/01 11:15:22;;;;;;;5.70;4.90;;;;;;;23.55;78.14;96921.00;1698095;75;818527;-72
2023/07/01 11:17:58;;;;;;;7.10;5.90;;;;;;;23.22;83.68;96920.59;1710778;75;676601;-74
2023/07/01 11:20:28;;;;;;;6.70;5.70;;;;;;;23.02;85.96;96919.72;1702253;75;755295;-71
2023/07/01 11:23:01;;;;;;;7.60;5.35;;;;;;;23.38;85.31;96919.03;1710432;75;673968;-70
2023/07/01 11:25:31;;;;;;;9.25;6.10;;;;;;;23.45;83.70;96923.78;1701812;75;751297;-73
2023/07/01 11:28:01;;;;;;;5.95;5.30;;;;;;;23.34;84.93;96922.25;1709638;75;677818;-73
2023/07/01 11:30:33;;;;;;;6.45;5.25;;;;;;;23.37;84.58;96914.75;1701334;75;734195;-73
2023/07/01 11:33:17;;;;;;;7.70;6.00;;;;;;;22.68;89.07;96912.88;1709779;75;712169;-73
2023/07/01 11:35:55;;;;;;;7.25;6.15;;;;;;;23.24;85.44;96910.31;1702536;75;747488;-74
2023/07/01 11:38:31;;;;;;;7.30;5.95;;;;;;;23.06;84.96;96909.63;1702975;75;694872;-74
2023/07/01 11:41:01;;;;;;;9.00;6.30;;;;;;;23.29;82.50;96908.56;1710986;75;681414;-72
2023/07/01 11:43:31;;;;;;;6.70;5.60;;;;;;;23.27;83.52;96909.13;1702691;75;683456;-76
2023/07/01 11:46:02;;;;;;;9.75;7.75;;;;;;;22.97;84.50;96910.28;1709483;75;686448;-72